Time;durP1;ratioP1;P1;durP2;ratioP2;P2;SDS_P1;SDS_P2;PMS_P1;PMS_P2;Temp;Humidity;BMP_temperature;BMP_pressure;BME280_temperature;BME280_humidity;BME280_pressure;Samples;Min_cycle;Max_cycle;Signal;HPM_P1;HPM_P2
2022/04/01 00:00:10;;;;;;;11.73;10.53;;;3.90;99.90;;;;;;5046823;28;20420;-35
2022/04/01 00:02:36;;;;;;;12.90;10.50;;;4.10;99.90;;;;;;5050404;28;20181;-35
2022/04/01 00:05:02;;;;;;;10.77;9.77;;;4.10;99.90;;;;;;5045221;28;20446;-35
2022/04/01 00:07:28;;;;;;;11.47;9.40;;;3.90;99.90;;;;;;5047119;28;20498;-35
2022/04/01 00:09:53;;;;;;;10.77;9.70;;;4.00;99.90;;;;;;5054523;28;21001;-35
2022/04/01 00:12:19;;;;;;;12.53;10.80;;;3.90;99.90;;;;;;5070107;28;20184;-35
2022/04/01 00:14:45;;;;;;;11.43;9.70;;;3.90;99.90;;;;;;5056538;28;20938;-35
2022/04/01 00:17:10;;;;;;;11.30;10.17;;;4.00;99.90;;;;;;5046974;28;20501;-35
2022/04/01 00:19:36;;;;;;;12.73;11.37;;;4.00;99.90;;;;;;5040604;28;20193;-35
2022/04/01 00:22:02;;;;;;;11.60;10.30;;;3.80;99.90;;;;;;5047663;28;20283;-35
2022/04/01 00:24:28;;;;;;;13.40;11.70;;;3.70;99.90;;;;;;5046538;28;20375;-35
2022/04/01 00:26:54;;;;;;;12.63;11.00;;;3.90;99.90;;;;;;5063569;28;20464;-35
2022/04/01 00:29:20;;;;;;;11.63;10.47;;;4.00;99.90;;;;;;5059271;28;20464;-35
2022/04/01 00:31:48;;;;;;;12.30;10.90;;;4.00;99.90;;;;;;5045790;28;20196;-35
2022/04/01 00:34:17;;;;;;;10.90;9.90;;;3.80;99.90;;;;;;5054065;28;20436;-35
2022/04/01 00:36:49;;;;;;;12.87;9.70;;;3.80;99.90;;;;;;5046635;28;20934;-35
2022/04/01 00:39:16;;;;;;;9.57;8.70;;;3.70;99.90;;;;;;5046301;28;20482;-35
2022/04/01 00:41:44;;;;;;;10.10;9.10;;;3.80;99.90;;;;;;5060616;28;20442;-35
2022/04/01 00:44:17;;;;;;;11.80;8.80;;;3.60;99.90;;;;;;5066078;28;20506;-35
2022/04/01 00:46:45;;;;;;;9.70;8.70;;;3.90;99.90;;;;;;5048851;28;20452;-35
2022/04/01 00:49:11;;;;;;;10.23;9.23;;;3.70;99.90;;;;;;5050176;28;20464;-35
2022/04/01 00:51:40;;;;;;;11.10;10.00;;;3.70;99.90;;;;;;5046120;28;20503;-35
2022/04/01 00:54:05;;;;;;;10.17;9.17;;;3.90;99.90;;;;;;5046362;28;20673;-35
2022/04/01 00:56:33;;;;;;;11.80;9.33;;;3.80;99.90;;;;;;5065347;28;20660;-35
2022/04/01 00:59:00;;;;;;;12.33;10.07;;;3.90;99.90;;;;;;5060544;28;20641;-35
2022/04/01 01:01:26;;;;;;;10.03;8.83;;;3.90;99.90;;;;;;5045793;28;20501;-35
2022/04/01 01:03:52;;;;;;;9.60;8.80;;;3.70;99.90;;;;;;5056609;28;20423;-35
2022/04/01 01:06:20;;;;;;;10.70;9.63;;;3.90;99.90;;;;;;5047258;28;20778;-35
2022/04/01 01:08:47;;;;;;;11.00;9.57;;;3.80;99.90;;;;;;5046587;28;20431;-35
2022/04/01 01:11:12;;;;;;;10.30;9.30;;;3.80;99.90;;;;;;5052858;28;21016;-35
2022/04/01 01:13:39;;;;;;;10.90;9.80;;;3.70;99.90;;;;;;5078728;28;20430;-35
2022/04/01 01:16:07;;;;;;;12.83;11.40;;;3.80;99.90;;;;;;5049244;28;20277;-35
2022/04/01 01:18:33;;;;;;;13.10;11.80;;;3.60;99.90;;;;;;5058173;28;20424;-35
2022/04/01 01:20:59;;;;;;;14.43;12.80;;;3.70;99.90;;;;;;5050443;28;20829;-35
2022/04/01 01:23:30;;;;;;;14.17;12.67;;;3.50;99.90;;;;;;5051149;28;20427;-35
2022/04/01 01:25:55;;;;;;;17.10;12.70;;;3.60;99.90;;;;;;5062679;28;20593;-35
2022/04/01 01:28:24;;;;;;;11.70;10.30;;;3.50;99.90;;;;;;5080371;28;20484;-35
2022/04/01 01:30:50;;;;;;;11.23;9.13;;;3.50;99.90;;;;;;5049637;28;20563;-35
2022/04/01 01:33:20;;;;;;;10.37;9.37;;;3.50;99.90;;;;;;5054539;28;20427;-35
2022/04/01 01:35:46;;;;;;;10.10;9.10;;;3.50;99.90;;;;;;5050075;28;20620;-35
2022/04/01 01:38:12;;;;;;;9.83;8.77;;;3.50;99.90;;;;;;5049696;28;20428;-35
2022/04/01 01:40:37;;;;;;;9.90;8.90;;;3.40;99.90;;;;;;5053328;28;20430;-35
2022/04/01 01:43:03;;;;;;;11.17;10.17;;;3.40;99.90;;;;;;5070052;28;20227;-35
2022/04/01 01:45:29;;;;;;;9.20;8.20;;;3.50;99.90;;;;;;5053535;28;20185;-35
2022/04/01 01:47:56;;;;;;;9.80;8.70;;;3.60;99.90;;;;;;5049955;28;20197;-35
2022/04/01 01:55:50;;;;;;;11.30;10.30;;;3.50;99.90;;;;;;5051595;28;20519;-35
2022/04/01 01:58:16;;;;;;;12.50;11.00;;;3.50;99.90;;;;;;5057694;28;20523;-35
2022/04/01 02:00:43;;;;;;;11.20;10.10;;;3.60;99.90;;;;;;5054900;28;20198;-35
2022/04/01 02:03:10;;;;;;;11.03;9.93;;;3.40;99.90;;;;;;5049535;28;20789;-35
2022/04/01 02:05:36;;;;;;;10.73;9.27;;;3.30;99.90;;;;;;5056265;28;20822;-35
2022/04/01 02:08:04;;;;;;;10.43;8.60;;;3.60;99.90;;;;;;5049457;28;20424;-35
2022/04/01 02:10:30;;;;;;;11.37;9.37;;;3.40;99.90;;;;;;5062377;28;20212;-35
2022/04/01 02:12:56;;;;;;;11.00;9.10;;;3.30;99.90;;;;;;5071379;28;20434;-35
2022/04/01 02:15:22;;;;;;;10.40;9.00;;;3.40;99.90;;;;;;5058636;28;20577;-35
2022/04/01 02:17:47;;;;;;;11.10;10.00;;;3.20;99.90;;;;;;5049478;28;20185;-35
2022/04/01 02:20:13;;;;;;;10.47;9.37;;;3.40;99.90;;;;;;5053751;28;20674;-35
2022/04/01 02:22:40;;;;;;;10.50;9.03;;;3.40;99.90;;;;;;5050219;28;20520;-35
2022/04/01 02:25:07;;;;;;;9.50;8.60;;;3.40;99.90;;;;;;5048273;28;20436;-35
2022/04/01 02:27:34;;;;;;;9.77;8.77;;;3.30;99.90;;;;;;5066415;28;20648;-35
2022/04/01 02:30:00;;;;;;;16.97;10.70;;;3.40;99.90;;;;;;5060790;28;20475;-35
2022/04/01 02:32:26;;;;;;;11.60;9.70;;;3.40;99.90;;;;;;5049073;28;20420;-35
2022/04/01 02:34:52;;;;;;;14.40;11.57;;;3.20;99.90;;;;;;5049617;28;20466;-35
2022/04/01 02:37:25;;;;;;;13.97;11.27;;;3.40;99.90;;;;;;5048769;28;20232;-35
2022/04/01 02:39:51;;;;;;;13.30;9.50;;;3.20;99.90;;;;;;5048004;28;20186;-35
2022/04/01 02:42:16;;;;;;;13.33;10.53;;;3.00;99.90;;;;;;5064958;28;20795;-35
2022/04/01 02:44:42;;;;;;;11.93;9.80;;;3.30;99.90;;;;;;5071658;28;20193;-35
2022/04/01 02:47:09;;;;;;;12.33;10.30;;;3.20;99.90;;;;;;5048176;28;20197;-35
2022/04/01 02:49:34;;;;;;;10.60;9.20;;;3.20;99.90;;;;;;5058707;28;20212;-35
2022/04/01 02:52:00;;;;;;;13.10;10.70;;;3.10;99.90;;;;;;5048098;28;20416;-35
2022/04/01 02:54:26;;;;;;;11.70;9.80;;;3.20;99.90;;;;;;5048335;28;20592;-35
2022/04/01 02:56:52;;;;;;;14.00;11.67;;;3.10;99.90;;;;;;5065032;28;20196;-35
2022/04/01 02:59:18;;;;;;;12.40;10.07;;;3.10;99.90;;;;;;5066596;28;20455;-35
2022/04/01 03:01:44;;;;;;;13.23;10.53;;;3.10;99.90;;;;;;5047472;28;20503;-35
2022/04/01 03:04:11;;;;;;;12.53;10.07;;;2.90;99.90;;;;;;5053760;28;20429;-35
2022/04/01 03:06:38;;;;;;;13.07;10.50;;;3.10;99.90;;;;;;5048012;28;20194;-35
2022/04/01 03:09:05;;;;;;;13.00;10.93;;;3.00;99.90;;;;;;5049552;28;20535;-35
2022/04/01 03:11:31;;;;;;;13.23;10.63;;;2.90;99.90;;;;;;5064387;28;20869;-35
2022/04/01 03:13:57;;;;;;;14.30;11.33;;;2.90;99.90;;;;;;5075908;28;20427;-35
2022/04/01 03:16:23;;;;;;;15.37;11.60;;;3.10;99.90;;;;;;5047696;28;20190;-35
2022/04/01 03:18:49;;;;;;;12.37;9.87;;;3.00;99.90;;;;;;5049015;28;20428;-35
2022/04/01 03:21:15;;;;;;;13.07;10.90;;;3.10;99.90;;;;;;5047441;28;20512;-35
2022/04/01 03:23:43;;;;;;;13.87;10.83;;;3.10;99.90;;;;;;5047829;28;20523;-35
2022/04/01 03:26:10;;;;;;;14.10;9.87;;;3.10;99.90;;;;;;5050761;28;20728;-35
2022/04/01 03:28:36;;;;;;;11.73;9.60;;;3.00;99.90;;;;;;5072693;28;20414;-35
2022/04/01 03:31:03;;;;;;;11.17;9.30;;;2.90;99.90;;;;;;5046806;28;20914;-35
2022/04/01 03:33:31;;;;;;;10.70;9.00;;;3.00;99.90;;;;;;5046010;28;20247;-35
2022/04/01 03:35:57;;;;;;;10.03;8.80;;;2.80;99.90;;;;;;5058342;28;20416;-35
2022/04/01 03:38:23;;;;;;;8.97;8.07;;;2.90;99.90;;;;;;5046316;28;20991;-35
2022/04/01 03:40:51;;;;;;;8.37;7.57;;;3.10;99.90;;;;;;5046225;28;20622;-35
2022/04/01 03:43:21;;;;;;;8.00;7.10;;;3.10;99.90;;;;;;5059117;28;20432;-35
2022/04/01 03:45:52;;;;;;;7.33;6.60;;;3.10;99.90;;;;;;5047392;28;20460;-35
2022/04/01 03:48:35;;;;;;;7.53;6.30;;;3.00;99.90;;;;;;5047037;28;20432;-35
2022/04/01 03:51:01;;;;;;;5.83;5.33;;;3.00;99.90;;;;;;5053432;28;20466;-35
2022/04/01 03:53:32;;;;;;;7.47;6.77;;;3.10;99.90;;;;;;5047144;28;20435;-35
2022/04/01 03:55:59;;;;;;;6.80;6.03;;;3.00;99.90;;;;;;5046377;28;20489;-35
2022/04/01 03:58:30;;;;;;;7.83;6.93;;;3.10;99.90;;;;;;5050601;28;20421;-35
2022/04/01 04:01:01;;;;;;;8.10;7.30;;;3.10;99.90;;;;;;5060337;28;20420;-35
2022/04/01 04:03:29;;;;;;;7.67;6.97;;;2.90;99.90;;;;;;5046538;28;20507;-35
2022/04/01 04:05:56;;;;;;;8.60;7.70;;;3.00;99.90;;;;;;5048801;28;20470;-35
2022/04/01 04:08:22;;;;;;;8.30;7.50;;;3.00;99.90;;;;;;5046800;28;20424;-35
2022/04/01 04:10:50;;;;;;;8.20;7.37;;;2.70;99.90;;;;;;5059331;28;20485;-35
2022/04/01 04:13:17;;;;;;;6.60;6.00;;;2.90;99.90;;;;;;5049620;28;20416;-35
2022/04/01 04:15:49;;;;;;;5.93;5.33;;;2.90;99.90;;;;;;5051467;28;20515;-35
2022/04/01 04:18:16;;;;;;;6.57;5.97;;;2.80;99.90;;;;;;5047262;28;20478;-35
2022/04/01 04:21:01;;;;;;;5.73;5.23;;;3.10;99.90;;;;;;5057784;28;20508;-35
2022/04/01 04:23:31;;;;;;;5.20;4.70;;;3.00;99.90;;;;;;5047816;28;20427;-35
2022/04/01 04:26:11;;;;;;;5.10;4.60;;;2.70;99.90;;;;;;5046277;28;20810;-35
2022/04/01 04:28:42;;;;;;;5.43;4.93;;;2.80;99.90;;;;;;5054329;28;20422;-35
2022/04/01 04:31:09;;;;;;;4.80;4.30;;;2.80;99.90;;;;;;5051746;28;20455;-35
2022/04/01 04:33:43;;;;;;;5.33;4.83;;;2.90;99.90;;;;;;5046418;28;20929;-35
2022/04/01 04:36:10;;;;;;;4.30;3.90;;;2.70;99.90;;;;;;5054141;28;20438;-35
2022/04/01 04:38:43;;;;;;;5.40;4.00;;;2.80;99.90;;;;;;5046579;28;20510;-35
2022/04/01 04:41:09;;;;;;;4.73;4.33;;;2.80;99.90;;;;;;5045038;28;20519;-35
2022/04/01 04:43:41;;;;;;;4.97;4.47;;;2.50;99.90;;;;;;5063250;28;20395;-35
2022/04/01 04:46:08;;;;;;;5.17;4.30;;;2.90;99.90;;;;;;5057955;28;21101;-35
2022/04/01 04:48:35;;;;;;;4.40;4.00;;;2.70;99.90;;;;;;5051759;28;20568;-35
2022/04/01 04:51:07;;;;;;;4.30;3.90;;;2.70;99.90;;;;;;5063077;28;21212;-35
2022/04/01 04:53:34;;;;;;;4.17;3.77;;;2.90;99.90;;;;;;5076309;28;20514;-35
2022/04/01 04:56:04;;;;;;;4.50;4.10;;;2.80;99.90;;;;;;5060704;28;20440;-35
2022/04/01 04:58:39;;;;;;;4.60;4.20;;;2.70;99.90;;;;;;5057623;28;20412;-35
2022/04/01 05:01:24;;;;;;;4.70;4.30;;;2.90;99.90;;;;;;5068588;28;20425;-35
2022/04/01 05:04:32;;;;;;;4.47;4.07;;;2.70;99.90;;;;;;5060160;28;20884;-35
2022/04/01 05:07:16;;;;;;;6.67;4.43;;;2.50;99.90;;;;;;5053785;28;20439;-35
2022/04/01 05:09:58;;;;;;;3.77;3.47;;;2.80;99.90;;;;;;5081815;28;20462;-35
2022/04/01 05:12:34;;;;;;;6.20;4.07;;;2.70;99.90;;;;;;5068041;28;20752;-35
2022/04/01 05:15:08;;;;;;;4.40;4.00;;;2.80;99.90;;;;;;5073580;28;20509;-35
2022/04/01 05:17:56;;;;;;;5.03;4.30;;;2.70;99.90;;;;;;5050061;28;20480;-35
2022/04/01 05:20:28;;;;;;;4.53;4.13;;;2.90;99.90;;;;;;5057805;28;20661;-35
2022/04/01 05:23:12;;;;;;;5.10;4.63;;;2.60;99.90;;;;;;5050725;28;20428;-35
2022/04/01 05:26:00;;;;;;;7.00;4.70;;;2.50;99.90;;;;;;5049653;28;20567;-35
2022/04/01 05:28:34;;;;;;;4.90;4.40;;;2.50;99.90;;;;;;5067021;28;20911;-35
2022/04/01 05:31:18;;;;;;;5.43;4.93;;;2.50;99.90;;;;;;5068084;28;20511;-35
2022/04/01 05:33:58;;;;;;;5.23;4.77;;;2.70;99.90;;;;;;5051955;28;20448;-35
2022/04/01 05:36:24;;;;;;;5.60;5.00;;;2.40;99.90;;;;;;5053671;28;20477;-35
2022/04/01 05:38:49;;;;;;;6.20;5.50;;;2.50;99.90;;;;;;5049420;28;20509;-35
2022/04/01 05:41:19;;;;;;;5.90;5.30;;;2.50;99.90;;;;;;5048614;28;20432;-35
2022/04/01 05:43:47;;;;;;;6.23;5.63;;;2.40;99.90;;;;;;5072458;28;20183;-35
2022/04/01 05:46:14;;;;;;;5.20;4.70;;;2.40;99.90;;;;;;5060887;28;20431;-35
2022/04/01 05:48:42;;;;;;;5.70;4.77;;;2.50;99.90;;;;;;5067636;28;20415;-35
2022/04/01 05:51:13;;;;;;;5.70;5.20;;;2.50;99.90;;;;;;5062655;28;20804;-35
2022/04/01 05:53:42;;;;;;;6.13;5.63;;;2.50;99.90;;;;;;5049476;28;20432;-35
2022/04/01 05:56:09;;;;;;;6.40;5.67;;;2.60;99.90;;;;;;5049066;28;20447;-35
2022/04/01 05:58:35;;;;;;;5.43;4.93;;;2.30;99.90;;;;;;5059886;28;20434;-35
2022/04/01 06:01:12;;;;;;;5.93;5.20;;;2.50;99.90;;;;;;5066746;28;20407;-35
2022/04/01 06:03:52;;;;;;;6.20;5.43;;;2.50;99.90;;;;;;5078859;28;20254;-35
2022/04/01 06:06:44;;;;;;;7.97;6.10;;;2.50;99.90;;;;;;5062181;28;20395;-35
2022/04/01 06:09:40;;;;;;;5.97;5.10;;;2.80;99.90;;;;;;5062255;28;20527;-35
2022/04/01 06:12:28;;;;;;;5.63;5.10;;;2.40;99.90;;;;;;5051928;28;20420;-35
2022/04/01 06:15:15;;;;;;;7.10;5.10;;;2.60;99.90;;;;;;5061001;28;20454;-35
2022/04/01 06:18:08;;;;;;;7.40;5.27;;;2.40;99.90;;;;;;5063076;28;20409;-35
2022/04/01 06:20:37;;;;;;;6.20;5.50;;;2.60;99.90;;;;;;5051800;28;20462;-36
2022/04/01 06:23:15;;;;;;;5.60;5.00;;;2.70;99.90;;;;;;5049085;28;20930;-35
2022/04/01 06:25:50;;;;;;;5.87;5.30;;;2.50;99.90;;;;;;5049001;28;20495;-35
2022/04/01 06:28:24;;;;;;;6.47;5.87;;;2.60;99.90;;;;;;5053178;28;20434;-35
2022/04/01 06:30:52;;;;;;;6.33;5.40;;;2.60;99.90;;;;;;5063651;28;20573;-35
2022/04/01 06:33:40;;;;;;;7.47;5.40;;;2.60;99.90;;;;;;5048733;28;20438;-35
2022/04/01 06:36:06;;;;;;;7.37;5.73;;;2.60;99.90;;;;;;5058894;28;20420;-35
2022/04/01 06:38:54;;;;;;;5.80;4.57;;;3.00;99.90;;;;;;5050718;28;20507;-35
2022/04/01 06:41:23;;;;;;;5.43;4.77;;;2.90;99.90;;;;;;5047545;28;20428;-35
2022/04/01 06:43:49;;;;;;;5.20;4.10;;;2.60;99.90;;;;;;5062127;28;20430;-35
2022/04/01 06:46:15;;;;;;;6.13;5.33;;;2.60;99.90;;;;;;5061065;28;20404;-35
2022/04/01 06:48:41;;;;;;;8.33;5.97;;;3.00;99.90;;;;;;5059817;28;20547;-35
2022/04/01 06:51:08;;;;;;;8.93;6.50;;;2.70;99.90;;;;;;5057367;28;20798;-35
2022/04/01 06:53:36;;;;;;;7.90;5.20;;;2.70;99.90;;;;;;5060006;28;20762;-35
2022/04/01 06:56:03;;;;;;;7.97;5.10;;;2.60;99.90;;;;;;5053588;28;20853;-35
2022/04/01 06:58:30;;;;;;;11.90;5.67;;;2.50;99.90;;;;;;5059995;28;20459;-35
2022/04/01 07:00:57;;;;;;;7.50;5.40;;;2.70;99.90;;;;;;5070908;28;20420;-35
2022/04/01 07:03:23;;;;;;;9.20;5.83;;;2.90;99.90;;;;;;5046692;28;20419;-35
2022/04/01 07:05:49;;;;;;;9.10;5.70;;;2.80;99.90;;;;;;5053061;28;20415;-35
2022/04/01 07:08:16;;;;;;;6.27;4.63;;;2.90;99.90;;;;;;5047755;28;20426;-35
2022/04/01 07:10:45;;;;;;;5.67;4.10;;;2.60;99.90;;;;;;5062011;28;20467;-35
2022/04/01 07:13:10;;;;;;;6.00;5.13;;;2.70;99.90;;;;;;5065990;28;20471;-35
2022/04/01 07:15:36;;;;;;;7.23;5.87;;;2.80;99.90;;;;;;5072973;28;20839;-35
2022/04/01 07:18:03;;;;;;;5.10;4.70;;;2.50;99.90;;;;;;5047306;28;20648;-36
2022/04/01 07:20:29;;;;;;;14.07;6.30;;;2.70;99.90;;;;;;5046943;28;20432;-35
2022/04/01 07:22:55;;;;;;;7.30;6.27;;;2.70;99.90;;;;;;5048532;28;20423;-35
2022/04/01 07:25:23;;;;;;;7.90;5.00;;;2.60;99.90;;;;;;5047579;28;20428;-35
2022/04/01 07:27:50;;;;;;;6.83;6.13;;;2.60;99.90;;;;;;5054155;28;20468;-35
2022/04/01 07:30:16;;;;;;;6.60;5.13;;;2.70;99.90;;;;;;5064477;28;20469;-35
2022/04/01 07:32:42;;;;;;;6.50;5.90;;;2.50;99.90;;;;;;5058153;28;20447;-35
2022/04/01 07:35:13;;;;;;;11.40;6.20;;;2.70;99.90;;;;;;5046426;28;20270;-35
2022/04/01 07:37:41;;;;;;;6.60;5.60;;;2.80;99.90;;;;;;5047450;28;20970;-35
2022/04/01 07:40:08;;;;;;;6.70;5.60;;;2.50;99.90;;;;;;5063340;28;20434;-36
2022/04/01 07:42:35;;;;;;;6.63;5.90;;;2.50;99.90;;;;;;5064993;28;20431;-35
2022/04/01 07:45:04;;;;;;;8.53;6.10;;;2.60;99.90;;;;;;5063133;28;20829;-35
2022/04/01 07:47:32;;;;;;;6.73;6.03;;;2.50;99.90;;;;;;5060530;28;20423;-35
2022/04/01 07:50:00;;;;;;;6.97;5.33;;;2.70;99.90;;;;;;5046375;28;20452;-35
2022/04/01 07:52:27;;;;;;;6.60;5.40;;;2.70;99.90;;;;;;5052797;28;20454;-35
2022/04/01 07:54:53;;;;;;;6.10;5.50;;;2.50;99.90;;;;;;5047044;28;20428;-36
2022/04/01 07:57:19;;;;;;;7.33;5.90;;;2.60;99.90;;;;;;5046749;28;20448;-35
2022/04/01 07:59:46;;;;;;;6.87;6.00;;;2.50;99.90;;;;;;5070869;28;20941;-35
2022/04/01 08:02:13;;;;;;;6.50;5.73;;;2.50;99.90;;;;;;5059669;28;20420;-35
2022/04/01 08:04:39;;;;;;;6.13;5.53;;;2.80;99.90;;;;;;5045865;28;20432;-35
2022/04/01 08:07:05;;;;;;;7.33;6.17;;;2.90;99.90;;;;;;5048395;28;20424;-35
2022/04/01 08:09:33;;;;;;;6.23;5.63;;;2.60;99.90;;;;;;5051666;28;20936;-35
2022/04/01 08:11:59;;;;;;;6.43;5.70;;;2.50;99.90;;;;;;5067172;28;20427;-35
2022/04/01 08:14:24;;;;;;;6.83;5.57;;;2.50;99.90;;;;;;5061768;28;20440;-35
2022/04/01 08:16:50;;;;;;;6.63;5.43;;;2.60;99.90;;;;;;5062136;28;20955;-35
2022/04/01 08:19:16;;;;;;;6.20;4.60;;;2.60;99.90;;;;;;5046707;28;20672;-35
2022/04/01 08:21:44;;;;;;;5.90;5.30;;;2.80;99.90;;;;;;5055587;28;20677;-35
2022/04/01 08:24:11;;;;;;;7.33;5.70;;;2.50;99.90;;;;;;5046565;28;20263;-35
2022/04/01 08:26:37;;;;;;;6.30;5.13;;;2.70;99.90;;;;;;5046463;28;20416;-35
2022/04/01 08:29:02;;;;;;;8.57;5.93;;;2.60;99.90;;;;;;5047062;28;20895;-35
2022/04/01 08:31:30;;;;;;;7.47;5.50;;;2.70;99.90;;;;;;5064831;28;20414;-35
2022/04/01 08:33:56;;;;;;;5.97;5.37;;;2.50;99.90;;;;;;5046815;28;20200;-35
2022/04/01 08:36:22;;;;;;;6.67;5.90;;;2.60;99.90;;;;;;5052092;28;20415;-35
2022/04/01 08:38:48;;;;;;;9.50;5.87;;;2.60;99.90;;;;;;5047201;28;20505;-35
2022/04/01 08:41:19;;;;;;;9.10;6.00;;;2.40;99.90;;;;;;5045912;28;20399;-35
2022/04/01 08:43:46;;;;;;;7.00;5.77;;;2.50;99.90;;;;;;5046337;28;20463;-35
2022/04/01 08:46:13;;;;;;;7.07;5.90;;;2.70;99.90;;;;;;5062568;28;20956;-35
2022/04/01 08:48:39;;;;;;;8.00;5.70;;;2.60;99.90;;;;;;5050348;28;20778;-35
2022/04/01 08:51:04;;;;;;;6.80;5.87;;;2.90;99.90;;;;;;5048034;28;20522;-35
2022/04/01 08:53:37;;;;;;;12.47;6.87;;;2.70;99.90;;;;;;5046521;28;20193;-35
2022/04/01 08:56:04;;;;;;;6.97;6.00;;;2.80;99.90;;;;;;5046153;28;20194;-35
2022/04/01 08:58:30;;;;;;;8.60;5.73;;;2.70;99.90;;;;;;5053301;28;20481;-35
2022/04/01 09:00:58;;;;;;;6.90;6.10;;;2.80;99.90;;;;;;5056604;28;20424;-35
2022/04/01 09:03:24;;;;;;;6.67;5.13;;;2.60;99.90;;;;;;5050400;28;20420;-35
2022/04/01 09:05:58;;;;;;;6.80;5.40;;;2.60;99.90;;;;;;5046545;28;20417;-35
2022/04/01 09:08:37;;;;;;;8.37;5.83;;;2.60;99.90;;;;;;5045885;28;20972;-35
2022/04/01 09:11:17;;;;;;;8.10;5.57;;;2.60;99.90;;;;;;5045561;28;20459;-35
2022/04/01 09:13:42;;;;;;;6.73;5.10;;;2.40;99.90;;;;;;5048800;28;20826;-35
2022/04/01 09:16:10;;;;;;;5.80;4.80;;;2.50;99.90;;;;;;5052673;28;20413;-35
2022/04/01 09:18:41;;;;;;;5.30;4.80;;;2.50;99.90;;;;;;5052942;28;20182;-35
2022/04/01 09:21:10;;;;;;;6.27;4.53;;;2.50;99.90;;;;;;5053271;28;20419;-35
2022/04/01 09:23:37;;;;;;;7.27;5.60;;;2.60;99.90;;;;;;5050946;28;20416;-35
2022/04/01 09:26:03;;;;;;;8.13;5.13;;;2.50;99.90;;;;;;5046292;28;20412;-35
2022/04/01 09:28:34;;;;;;;5.50;4.10;;;2.90;99.90;;;;;;5046762;28;20432;-35
2022/04/01 09:31:03;;;;;;;5.67;4.60;;;2.70;99.90;;;;;;5069326;28;20556;-35
2022/04/01 09:33:46;;;;;;;6.90;4.93;;;2.60;99.90;;;;;;5052703;28;20410;-35
2022/04/01 09:36:13;;;;;;;6.03;4.50;;;2.70;99.90;;;;;;5047221;28;20418;-35
2022/04/01 09:38:39;;;;;;;6.07;5.10;;;2.60;99.90;;;;;;5051123;28;20915;-35
2022/04/01 09:41:07;;;;;;;4.83;4.40;;;2.80;99.90;;;;;;5049060;28;20452;-35
2022/04/01 09:43:39;;;;;;;7.27;5.60;;;2.90;99.90;;;;;;5053301;28;20432;-35
2022/04/01 09:46:24;;;;;;;6.73;5.60;;;2.80;99.90;;;;;;5072157;28;20771;-35
2022/04/01 09:48:58;;;;;;;7.70;5.37;;;2.60;99.90;;;;;;5049542;28;20416;-35
2022/04/01 09:51:32;;;;;;;8.07;5.20;;;2.50;99.90;;;;;;5051060;28;20434;-35
2022/04/01 09:54:02;;;;;;;7.90;4.40;;;2.70;99.90;;;;;;5059150;28;20470;-35
2022/04/01 09:56:47;;;;;;;7.73;5.47;;;2.60;99.90;;;;;;5049228;28;20428;-35
2022/04/01 09:59:15;;;;;;;6.13;4.90;;;2.60;99.90;;;;;;5049081;28;20407;-35
2022/04/01 10:01:43;;;;;;;6.70;5.03;;;2.50;99.90;;;;;;5072808;28;20415;-35
2022/04/01 10:04:10;;;;;;;8.10;5.30;;;2.50;99.90;;;;;;5053185;28;20395;-35
2022/04/01 10:06:36;;;;;;;5.43;4.80;;;2.50;99.90;;;;;;5051550;28;20391;-35
2022/04/01 10:09:08;;;;;;;6.10;5.50;;;2.50;99.90;;;;;;5054033;28;20448;-35
2022/04/01 10:11:39;;;;;;;6.20;5.20;;;2.40;99.90;;;;;;5048542;28;20649;-35
2022/04/01 10:14:16;;;;;;;6.80;5.30;;;2.40;99.90;;;;;;5051079;28;20877;-36
2022/04/01 10:16:44;;;;;;;6.17;5.57;;;2.50;99.90;;;;;;5068883;28;20418;-35
2022/04/01 10:19:18;;;;;;;7.10;5.37;;;2.50;99.90;;;;;;5065957;28;20564;-35
2022/04/01 10:21:45;;;;;;;6.50;5.13;;;2.80;99.90;;;;;;5051272;28;20434;-35
2022/04/01 10:24:15;;;;;;;8.50;5.40;;;2.70;99.90;;;;;;5048752;28;20451;-35
2022/04/01 10:27:21;;;;;;;7.77;6.37;;;2.50;99.90;;;;;;5048607;28;20406;-35
2022/04/01 10:29:47;;;;;;;8.53;6.20;;;2.80;99.90;;;;;;5048317;28;20441;-35
2022/04/01 10:32:43;;;;;;;6.07;5.17;;;2.70;99.90;;;;;;5068727;28;20566;-35
2022/04/01 10:35:24;;;;;;;5.73;4.90;;;2.70;99.90;;;;;;5043689;28;20428;-35
2022/04/01 10:37:54;;;;;;;6.90;5.87;;;2.90;99.90;;;;;;5060201;28;20405;-35
2022/04/01 10:40:20;;;;;;;7.63;6.23;;;2.70;99.90;;;;;;5048771;28;20428;-35
2022/04/01 10:42:48;;;;;;;6.27;5.67;;;2.60;99.90;;;;;;5048289;28;20513;-35
2022/04/01 10:45:16;;;;;;;6.50;5.73;;;2.50;99.90;;;;;;5052922;28;20444;-35
2022/04/01 10:53:51;;;;;;;6.43;5.17;;;2.70;99.90;;;;;;5058767;28;20424;-35
2022/04/01 10:59:05;;;;;;;6.23;5.50;;;2.50;99.90;;;;;;5049598;28;20185;-35
2022/04/01 11:01:32;;;;;;;6.20;5.37;;;2.90;99.90;;;;;;5076384;28;20422;-35
2022/04/01 11:04:08;;;;;;;8.53;5.70;;;2.60;99.90;;;;;;5073905;28;20510;-35
2022/04/01 11:07:03;;;;;;;7.60;5.80;;;2.60;99.90;;;;;;5048048;28;20981;-35
2022/04/01 11:09:51;;;;;;;7.53;6.43;;;2.70;99.90;;;;;;5047548;28;20898;-35
2022/04/01 11:12:21;;;;;;;8.53;5.47;;;2.60;99.90;;;;;;5047937;28;20439;-35
2022/04/01 11:14:59;;;;;;;7.40;6.03;;;2.70;99.90;;;;;;5051653;28;20432;-35
2022/04/01 11:17:49;;;;;;;9.50;6.00;;;2.80;99.90;;;;;;5068748;28;20412;-35
2022/04/01 11:20:27;;;;;;;5.97;5.37;;;2.50;99.90;;;;;;5047274;28;20421;-35
2022/04/01 11:22:53;;;;;;;7.77;6.83;;;2.80;99.90;;;;;;5047873;28;20839;-35
2022/04/01 11:25:22;;;;;;;7.23;6.50;;;2.80;99.90;;;;;;5047815;28;20428;-35
2022/04/01 11:28:14;;;;;;;7.13;6.43;;;2.70;99.90;;;;;;5047870;28;20721;-35
2022/04/01 11:30:40;;;;;;;7.20;6.23;;;2.80;99.90;;;;;;5052971;28;20887;-35
2022/04/01 11:33:13;;;;;;;7.40;6.60;;;3.00;99.90;;;;;;5057152;28;20439;-35
2022/04/01 11:35:51;;;;;;;8.03;6.60;;;2.60;99.90;;;;;;5054934;28;20338;-35
2022/04/01 11:38:19;;;;;;;6.90;6.20;;;2.60;99.90;;;;;;5064946;28;20414;-35
2022/04/01 11:40:47;;;;;;;9.53;6.67;;;2.80;99.90;;;;;;5046705;28;20447;-35
2022/04/01 11:43:14;;;;;;;9.97;7.00;;;2.80;99.90;;;;;;5047157;28;20407;-35
2022/04/01 11:45:44;;;;;;;7.27;6.50;;;2.50;99.90;;;;;;5061989;28;20429;-35
2022/04/01 11:48:17;;;;;;;9.40;7.10;;;2.50;99.90;;;;;;5067351;28;20835;-35
2022/04/01 11:50:48;;;;;;;8.10;7.30;;;2.90;99.90;;;;;;5047127;28;20529;-35
2022/04/01 11:53:31;;;;;;;7.63;6.83;;;2.60;99.90;;;;;;5051965;28;20538;-35
2022/04/01 11:56:01;;;;;;;9.87;6.93;;;2.60;99.90;;;;;;5047397;28;20558;-35
2022/04/01 11:58:33;;;;;;;8.97;7.67;;;2.60;99.90;;;;;;5047322;28;20406;-35
2022/04/01 12:00:58;;;;;;;11.23;6.83;;;2.70;99.90;;;;;;5063229;28;20724;-35
2022/04/01 12:03:24;;;;;;;9.77;7.50;;;2.60;99.90;;;;;;5062265;28;20426;-35
2022/04/01 12:08:41;;;;;;;7.40;6.67;;;2.70;99.90;;;;;;5047243;28;20189;-35
2022/04/01 12:08:45;;;;;;;7.17;6.43;;;2.70;99.90;;;;;;5047812;28;20224;-35
2022/04/01 12:11:11;;;;;;;7.63;6.53;;;2.60;99.90;;;;;;5065598;28;20470;-35
2022/04/01 12:13:47;;;;;;;11.70;7.70;;;2.70;99.90;;;;;;5066958;28;20850;-35
2022/04/01 12:16:13;;;;;;;8.50;6.70;;;2.50;99.90;;;;;;5059456;28;20450;-35
2022/04/01 12:18:44;;;;;;;7.87;7.07;;;2.70;99.90;;;;;;5070226;28;21012;-35
2022/04/01 12:21:18;;;;;;;8.53;7.30;;;2.60;99.90;;;;;;5046252;28;20434;-35
2022/04/01 12:23:46;;;;;;;8.40;6.77;;;2.80;99.90;;;;;;5050743;28;20435;-35
2022/04/01 12:26:13;;;;;;;10.43;7.90;;;2.50;99.90;;;;;;5046770;28;20954;-35
2022/04/01 12:28:41;;;;;;;9.63;7.90;;;2.70;99.90;;;;;;5046701;28;20833;-35
2022/04/01 12:31:18;;;;;;;7.50;6.50;;;2.40;99.90;;;;;;5055864;28;20477;-35
2022/04/01 12:33:50;;;;;;;7.03;6.10;;;2.40;99.90;;;;;;5051799;28;20515;-35
2022/04/01 12:36:18;;;;;;;7.90;6.43;;;2.50;99.90;;;;;;5045931;28;20416;-35
2022/04/01 12:39:03;;;;;;;7.90;6.37;;;2.50;99.90;;;;;;5052399;28;20435;-35
2022/04/01 12:41:29;;;;;;;8.90;6.77;;;2.40;99.90;;;;;;5045162;28;20420;-35
2022/04/01 12:43:56;;;;;;;6.30;5.33;;;2.70;99.90;;;;;;5045589;28;20717;-35
2022/04/01 12:46:31;;;;;;;8.40;6.70;;;2.60;99.90;;;;;;5064097;28;20438;-35
2022/04/01 12:49:11;;;;;;;8.00;6.50;;;2.50;99.90;;;;;;5063466;28;20755;-35
2022/04/01 12:51:40;;;;;;;7.57;6.63;;;2.80;99.90;;;;;;5045025;28;20953;-35
2022/04/01 12:54:09;;;;;;;7.70;6.30;;;2.50;99.90;;;;;;5048397;28;20489;-35
2022/04/01 12:56:42;;;;;;;8.03;6.83;;;2.60;99.90;;;;;;5045627;28;20802;-35
2022/04/01 12:59:10;;;;;;;9.00;6.43;;;2.60;99.90;;;;;;5046240;28;20926;-35
2022/04/01 13:01:41;;;;;;;7.10;6.00;;;2.50;99.90;;;;;;5064500;28;20465;-35
2022/04/01 13:04:09;;;;;;;7.63;6.90;;;2.60;99.90;;;;;;5055257;28;20456;-35
2022/04/01 13:06:35;;;;;;;8.37;6.70;;;2.50;99.90;;;;;;5046177;28;20435;-35
2022/04/01 13:09:03;;;;;;;8.57;6.50;;;2.70;99.90;;;;;;5057266;28;20458;-35
2022/04/01 13:11:36;;;;;;;8.93;6.33;;;2.60;99.90;;;;;;5046797;28;20513;-35
2022/04/01 13:14:03;;;;;;;9.93;6.83;;;2.60;99.90;;;;;;5049215;28;20420;-35
2022/04/01 13:16:40;;;;;;;10.10;6.43;;;2.50;99.90;;;;;;5055192;28;20440;-35
2022/04/01 13:19:26;;;;;;;6.70;5.53;;;2.50;99.90;;;;;;5072700;28;20424;-35
2022/04/01 13:21:57;;;;;;;8.10;5.97;;;2.70;99.90;;;;;;5049770;28;20779;-35